Time;durP1;ratioP1;P1;durP2;ratioP2;P2;SDS_P1;SDS_P2;PMS_P1;PMS_P2;Temp;Humidity;BMP_temperature;BMP_pressure;BME280_temperature;BME280_humidity;BME280_pressure;Samples;Min_cycle;Max_cycle;Signal;HPM_P1;HPM_P2
2023/10/24 00:01:30;;;;;;;4.80;2.63;;;13.60;73.30;;;;;;5088841;28;20035;-62
2023/10/24 00:03:56;;;;;;;4.85;2.90;;;13.60;73.30;;;;;;5085987;28;20031;-62
2023/10/24 00:06:22;;;;;;;8.13;2.90;;;13.50;73.00;;;;;;5086884;28;20027;-61
2023/10/24 00:08:47;;;;;;;5.75;2.67;;;13.50;73.20;;;;;;5084093;28;20024;-61
2023/10/24 00:11:13;;;;;;;5.07;2.80;;;13.50;73.30;;;;;;5086659;28;20386;-62
2023/10/24 00:13:39;;;;;;;5.72;2.90;;;13.50;73.20;;;;;;5083092;28;20063;-62
2023/10/24 00:16:04;;;;;;;4.68;2.97;;;13.50;73.40;;;;;;5087458;28;20033;-61
2023/10/24 00:18:30;;;;;;;5.13;3.15;;;13.40;73.40;;;;;;5070144;28;20036;-61
2023/10/24 00:20:56;;;;;;;3.30;2.58;;;13.40;73.50;;;;;;5088711;28;20143;-61
2023/10/24 00:23:21;;;;;;;4.68;2.97;;;13.40;73.50;;;;;;5091778;28;20658;-61
2023/10/24 00:25:47;;;;;;;7.28;2.80;;;13.40;73.50;;;;;;5084055;28;20066;-61
2023/10/24 00:28:13;;;;;;;5.60;2.80;;;13.50;73.60;;;;;;5086775;28;20040;-60
2023/10/24 00:30:39;;;;;;;6.47;4.30;;;13.40;73.50;;;;;;5094185;28;20043;-62
2023/10/24 00:33:05;;;;;;;11.40;5.45;;;13.40;73.50;;;;;;5097148;28;20027;-61
2023/10/24 00:35:32;;;;;;;7.65;4.97;;;13.40;73.50;;;;;;5072181;28;20111;-61
2023/10/24 00:37:57;;;;;;;6.20;4.45;;;13.40;73.50;;;;;;5093003;28;20032;-61
2023/10/24 00:40:23;;;;;;;6.38;3.92;;;13.40;73.50;;;;;;5092646;28;20153;-62
2023/10/24 00:42:50;;;;;;;5.40;3.58;;;13.40;73.50;;;;;;5093595;28;20028;-61
2023/10/24 00:45:16;;;;;;;5.28;3.60;;;13.40;73.50;;;;;;5091545;28;20103;-62
2023/10/24 00:47:42;;;;;;;6.45;3.63;;;13.40;73.40;;;;;;5091032;28;20380;-61
2023/10/24 00:50:09;;;;;;;4.88;3.00;;;13.40;73.50;;;;;;5090420;28;20061;-62
2023/10/24 00:52:36;;;;;;;4.35;2.80;;;13.40;73.60;;;;;;5093443;28;20035;-62
2023/10/24 00:55:03;;;;;;;6.13;2.88;;;13.30;73.60;;;;;;5088865;28;20401;-61
2023/10/24 00:57:29;;;;;;;5.28;3.10;;;13.40;73.70;;;;;;5088071;28;20031;-62
2023/10/24 00:59:55;;;;;;;4.07;2.60;;;13.40;73.70;;;;;;5074274;28;20398;-62
2023/10/24 01:02:21;;;;;;;3.95;2.90;;;13.40;73.60;;;;;;5087402;28;20455;-62
2023/10/24 01:04:47;;;;;;;5.85;3.17;;;13.40;73.60;;;;;;5084953;28;20120;-62
2023/10/24 01:07:13;;;;;;;4.53;2.72;;;13.30;73.50;;;;;;5087995;28;20175;-62
2023/10/24 01:09:39;;;;;;;4.88;3.00;;;13.40;73.50;;;;;;5090509;28;20102;-62
2023/10/24 01:12:06;;;;;;;3.20;2.38;;;13.30;73.40;;;;;;5086446;28;20035;-61
2023/10/24 01:14:32;;;;;;;3.80;2.65;;;13.30;73.40;;;;;;5090128;28;20028;-61
2023/10/24 01:16:58;;;;;;;4.82;2.80;;;13.30;73.50;;;;;;5083690;28;20079;-62
2023/10/24 01:19:24;;;;;;;7.28;2.90;;;13.30;73.60;;;;;;5089547;28;20501;-62
2023/10/24 01:21:50;;;;;;;4.70;2.83;;;13.30;73.60;;;;;;5090905;28;20497;-61
2023/10/24 01:24:17;;;;;;;3.80;2.70;;;13.20;73.60;;;;;;5088317;28;20035;-61
2023/10/24 01:26:43;;;;;;;4.35;3.17;;;13.20;73.70;;;;;;5087539;28;20020;-60
2023/10/24 01:29:10;;;;;;;4.47;2.92;;;13.20;73.70;;;;;;5089650;28;20073;-62
2023/10/24 01:31:36;;;;;;;6.22;2.72;;;13.20;73.80;;;;;;5092716;28;20042;-62
2023/10/24 01:34:02;;;;;;;4.30;2.97;;;13.20;73.80;;;;;;5087016;28;20020;-61
2023/10/24 01:36:28;;;;;;;4.88;2.97;;;13.20;73.80;;;;;;5087404;28;20028;-61
2023/10/24 01:38:54;;;;;;;3.92;3.05;;;13.20;73.70;;;;;;5087792;28;20052;-61
2023/10/24 01:41:20;;;;;;;4.88;3.33;;;13.20;73.70;;;;;;5086030;28;20031;-61
2023/10/24 01:43:46;;;;;;;5.05;3.17;;;13.20;73.80;;;;;;5091301;28;20020;-61
2023/10/24 01:46:11;;;;;;;6.45;2.90;;;13.10;73.70;;;;;;5023581;28;20062;-62
2023/10/24 01:48:37;;;;;;;6.18;3.10;;;13.20;73.90;;;;;;5086918;28;20046;-61
2023/10/24 01:51:03;;;;;;;5.03;2.90;;;13.10;73.80;;;;;;5092731;28;20109;-61
2023/10/24 01:53:29;;;;;;;4.13;2.72;;;13.10;73.90;;;;;;5101707;27;20462;-62
2023/10/24 01:55:55;;;;;;;6.50;3.10;;;13.10;73.90;;;;;;5086081;28;20031;-62
2023/10/24 01:58:20;;;;;;;7.90;3.30;;;13.10;74.00;;;;;;5086931;28;20039;-62
2023/10/24 02:00:46;;;;;;;4.32;3.00;;;13.10;74.20;;;;;;5085458;28;20038;-62
2023/10/24 02:03:11;;;;;;;4.43;3.03;;;13.10;74.20;;;;;;5071209;28;20036;-62
2023/10/24 02:05:39;;;;;;;4.55;3.30;;;13.10;74.20;;;;;;5091607;28;20028;-62
2023/10/24 02:08:04;;;;;;;6.10;2.97;;;13.00;74.30;;;;;;5089160;28;20032;-63
2023/10/24 02:10:30;;;;;;;6.45;2.90;;;13.10;74.30;;;;;;5085762;28;20486;-63
2023/10/24 02:12:56;;;;;;;7.40;2.90;;;13.00;74.20;;;;;;5085938;28;20030;-63
2023/10/24 02:15:22;;;;;;;12.13;3.13;;;13.00;74.20;;;;;;5086259;28;20031;-63
2023/10/24 02:17:47;;;;;;;11.55;3.30;;;13.00;74.30;;;;;;5088371;28;20031;-61
2023/10/24 02:20:13;;;;;;;4.30;3.10;;;13.00;74.30;;;;;;5069889;28;20044;-62
2023/10/24 02:22:39;;;;;;;7.13;3.42;;;13.00;74.20;;;;;;5086436;28;20106;-62
2023/10/24 02:25:07;;;;;;;5.10;3.33;;;13.00;74.40;;;;;;5089346;28;20458;-61
2023/10/24 02:27:34;;;;;;;7.53;3.60;;;13.00;74.60;;;;;;5087909;28;20905;-62
2023/10/24 02:30:01;;;;;;;6.53;3.22;;;13.00;74.80;;;;;;5086808;28;20197;-61
2023/10/24 02:32:26;;;;;;;6.40;3.33;;;13.00;74.80;;;;;;5087755;28;20020;-62
2023/10/24 02:34:52;;;;;;;6.70;3.30;;;13.00;74.90;;;;;;5087837;28;20032;-62
2023/10/24 02:37:18;;;;;;;5.93;3.25;;;13.00;74.90;;;;;;5068612;28;20448;-61
2023/10/24 02:39:44;;;;;;;6.93;3.70;;;13.00;74.90;;;;;;5085315;28;20028;-62
2023/10/24 02:42:09;;;;;;;5.90;3.25;;;13.00;75.00;;;;;;5085629;28;20073;-62
2023/10/24 02:44:35;;;;;;;9.05;3.75;;;13.00;75.00;;;;;;5082869;28;20028;-62
2023/10/24 02:47:01;;;;;;;6.68;3.58;;;13.00;74.90;;;;;;4989368;28;20105;-62
2023/10/24 02:49:27;;;;;;;8.90;3.60;;;13.00;74.90;;;;;;5088995;28;20558;-62
2023/10/24 02:51:52;;;;;;;4.03;3.22;;;13.00;74.80;;;;;;5087085;28;20678;-61
2023/10/24 02:54:18;;;;;;;6.10;3.22;;;13.00;74.80;;;;;;5083233;28;20050;-63
2023/10/24 02:56:43;;;;;;;3.92;2.92;;;13.00;74.80;;;;;;5091674;28;20058;-62
2023/10/24 02:59:09;;;;;;;7.18;3.38;;;13.00;74.70;;;;;;5089553;28;20394;-62
2023/10/24 03:01:35;;;;;;;6.53;3.28;;;13.00;74.70;;;;;;5084226;28;20058;-62
2023/10/24 03:04:01;;;;;;;6.13;3.28;;;13.00;74.70;;;;;;5085692;28;20028;-62
2023/10/24 03:06:27;;;;;;;6.07;3.15;;;13.00;74.80;;;;;;5087556;28;20024;-62
2023/10/24 03:08:52;;;;;;;4.63;2.85;;;13.00;74.70;;;;;;5087297;28;20063;-62
2023/10/24 03:11:25;;;;;;;10.00;3.13;;;13.00;74.70;;;;;;5088688;28;20024;-63
2023/10/24 03:13:55;;;;;;;4.03;2.55;;;13.00;74.90;;;;;;5073752;28;20028;-63
2023/10/24 03:16:21;;;;;;;7.88;3.08;;;13.00;74.80;;;;;;5086501;28;20024;-62
2023/10/24 03:18:47;;;;;;;8.20;3.38;;;13.00;74.70;;;;;;5081894;28;20032;-63
2023/10/24 03:21:13;;;;;;;7.55;3.25;;;13.00;74.70;;;;;;5083854;28;20132;-63
2023/10/24 03:23:44;;;;;;;7.05;2.92;;;13.00;74.80;;;;;;5084676;28;20024;-62
2023/10/24 03:26:10;;;;;;;6.45;3.05;;;13.00;74.70;;;;;;5081380;28;20096;-62
2023/10/24 03:28:36;;;;;;;6.00;3.22;;;13.00;74.70;;;;;;5085085;28;20035;-62
2023/10/24 03:31:06;;;;;;;4.55;3.45;;;13.00;74.80;;;;;;5086403;28;20040;-61
2023/10/24 03:33:32;;;;;;;5.10;3.17;;;13.00;74.80;;;;;;5082087;28;20020;-63
2023/10/24 03:35:59;;;;;;;6.00;3.38;;;13.00;74.80;;;;;;5084737;28;20394;-62
2023/10/24 03:38:25;;;;;;;8.93;3.80;;;13.00;74.90;;;;;;5086467;28;20157;-62
2023/10/24 03:40:52;;;;;;;9.20;3.58;;;13.00;74.90;;;;;;5085106;28;20028;-62
2023/10/24 03:43:18;;;;;;;3.65;3.30;;;13.00;74.90;;;;;;5088451;28;20040;-61
2023/10/24 03:45:43;;;;;;;6.93;3.03;;;13.00;74.90;;;;;;5065474;28;20074;-63
2023/10/24 03:48:09;;;;;;;3.88;2.78;;;13.00;74.90;;;;;;5085663;28;20035;-62
2023/10/24 03:50:37;;;;;;;6.43;3.47;;;13.00;74.90;;;;;;5086781;28;20028;-62
2023/10/24 03:53:04;;;;;;;12.23;4.47;;;13.00;74.90;;;;;;5092125;28;20058;-62
2023/10/24 03:55:29;;;;;;;7.30;4.78;;;13.00;74.90;;;;;;5083530;28;20112;-63
2023/10/24 03:57:56;;;;;;;8.63;5.13;;;13.00;74.90;;;;;;5093180;28;20491;-62
2023/10/24 04:00:22;;;;;;;6.90;4.55;;;13.00;75.00;;;;;;5098344;28;20351;-61
2023/10/24 04:02:52;;;;;;;8.27;4.47;;;13.00;75.10;;;;;;5085515;28;20027;-61
2023/10/24 04:05:18;;;;;;;9.20;4.57;;;13.00;75.30;;;;;;5092003;28;20065;-61
2023/10/24 04:07:43;;;;;;;5.07;3.83;;;13.00;75.10;;;;;;5087017;28;20405;-61
2023/10/24 04:10:11;;;;;;;6.18;3.85;;;13.00;75.10;;;;;;5087267;28;20040;-62
2023/10/24 04:12:37;;;;;;;9.98;4.63;;;13.00;75.10;;;;;;5095528;28;20039;-62
2023/10/24 04:15:03;;;;;;;10.38;4.38;;;13.00;75.10;;;;;;5077485;28;20036;-62
2023/10/24 04:17:29;;;;;;;5.10;4.10;;;13.00;75.20;;;;;;5091860;28;20016;-62
2023/10/24 04:19:55;;;;;;;7.72;3.97;;;13.00;75.20;;;;;;5096604;28;20046;-61
2023/10/24 04:22:20;;;;;;;4.25;3.53;;;13.00;75.10;;;;;;5097990;28;20122;-62
2023/10/24 04:24:46;;;;;;;6.97;3.72;;;13.00;75.00;;;;;;5093576;28;20140;-63
2023/10/24 04:27:12;;;;;;;4.20;3.53;;;13.00;75.70;;;;;;5092303;28;20016;-61
2023/10/24 04:29:38;;;;;;;6.65;3.60;;;13.10;75.00;;;;;;5095328;28;20028;-62
2023/10/24 04:32:04;;;;;;;5.50;3.67;;;13.00;75.00;;;;;;5094142;28;20117;-62
2023/10/24 04:34:30;;;;;;;9.00;3.92;;;13.00;74.90;;;;;;5076052;28;20066;-61
2023/10/24 04:36:55;;;;;;;4.78;3.40;;;13.00;74.80;;;;;;5093754;28;20092;-62
2023/10/24 04:39:21;;;;;;;10.95;3.45;;;13.00;74.70;;;;;;5094060;28;20040;-61
2023/10/24 04:41:50;;;;;;;4.82;3.45;;;13.00;74.70;;;;;;5090989;28;20028;-61
2023/10/24 04:44:15;;;;;;;5.55;3.28;;;13.00;74.80;;;;;;5090006;28;20027;-62
2023/10/24 04:46:41;;;;;;;4.40;3.20;;;13.00;74.70;;;;;;4990724;28;20028;-62
2023/10/24 04:49:07;;;;;;;7.00;3.10;;;13.00;74.70;;;;;;5077428;28;20470;-62
2023/10/24 04:51:32;;;;;;;3.80;2.97;;;12.90;74.70;;;;;;5070109;28;20031;-61
2023/10/24 04:53:58;;;;;;;5.13;3.38;;;12.90;74.70;;;;;;5098216;28;20031;-62
2023/10/24 04:56:24;;;;;;;5.43;3.15;;;12.90;74.70;;;;;;5094088;28;20043;-63
2023/10/24 04:58:50;;;;;;;6.38;3.15;;;12.90;74.70;;;;;;5092422;28;20424;-62
2023/10/24 05:01:16;;;;;;;10.07;3.40;;;12.90;74.70;;;;;;5093693;28;20038;-62
2023/10/24 05:03:42;;;;;;;6.15;3.70;;;12.90;74.70;;;;;;5098996;28;20042;-62
2023/10/24 05:06:08;;;;;;;6.60;3.80;;;12.90;75.60;;;;;;5097472;28;20100;-62
2023/10/24 05:08:34;;;;;;;7.90;3.28;;;12.80;74.90;;;;;;5094508;28;20073;-62
2023/10/24 05:11:01;;;;;;;6.90;3.45;;;12.90;75.00;;;;;;5094747;28;20054;-63
2023/10/24 05:13:27;;;;;;;6.63;3.67;;;12.80;74.90;;;;;;5073352;28;20047;-63
2023/10/24 05:15:53;;;;;;;6.57;3.65;;;12.80;74.90;;;;;;5088230;28;20107;-63
2023/10/24 05:18:18;;;;;;;6.72;4.32;;;12.80;74.90;;;;;;5090167;28;20067;-63
2023/10/24 05:20:45;;;;;;;8.10;5.25;;;12.80;74.90;;;;;;5093441;28;20032;-62
2023/10/24 05:23:11;;;;;;;10.18;5.38;;;12.80;74.90;;;;;;5100473;28;20023;-63
2023/10/24 05:25:36;;;;;;;5.53;4.47;;;12.80;75.00;;;;;;5089337;28;20041;-63
2023/10/24 05:28:02;;;;;;;6.82;4.88;;;12.80;75.10;;;;;;5091783;28;20478;-62
2023/10/24 05:30:43;;;;;;;5.05;3.88;;;12.80;75.10;;;;;;5056340;28;20084;-62
2023/10/24 05:33:08;;;;;;;4.95;3.58;;;12.80;75.00;;;;;;5089601;28;20712;-62
2023/10/24 05:35:34;;;;;;;10.38;3.53;;;12.80;75.00;;;;;;5089110;28;20382;-63
2023/10/24 05:38:01;;;;;;;9.70;3.35;;;12.80;75.00;;;;;;5095905;28;20081;-62
2023/10/24 05:40:26;;;;;;;5.40;3.65;;;12.80;75.00;;;;;;5092076;28;20370;-62
2023/10/24 05:42:52;;;;;;;11.63;3.10;;;12.70;75.00;;;;;;5094976;28;20032;-62
2023/10/24 05:45:18;;;;;;;5.13;3.30;;;12.70;74.90;;;;;;5084009;28;20035;-62
2023/10/24 05:47:44;;;;;;;5.45;4.03;;;12.70;74.90;;;;;;5073147;28;20434;-62
2023/10/24 05:50:11;;;;;;;6.25;3.85;;;12.70;74.90;;;;;;5089660;28;20020;-62
2023/10/24 05:52:37;;;;;;;10.65;3.90;;;12.70;75.00;;;;;;5092400;28;20112;-62
2023/10/24 05:55:02;;;;;;;5.90;3.22;;;12.60;74.90;;;;;;5071090;28;20770;-61
2023/10/24 05:57:29;;;;;;;15.38;4.20;;;12.60;75.00;;;;;;5091576;28;20028;-62
2023/10/24 05:59:55;;;;;;;6.22;4.35;;;12.60;74.90;;;;;;5093359;28;20043;-63
2023/10/24 06:02:20;;;;;;;10.02;4.40;;;12.60;75.00;;;;;;5095168;28;20936;-63
2023/10/24 06:04:46;;;;;;;20.23;6.07;;;12.60;75.10;;;;;;5085946;28;20027;-63
2023/10/24 06:07:13;;;;;;;9.27;5.97;;;12.60;75.20;;;;;;5103543;27;20027;-64
2023/10/24 06:09:38;;;;;;;11.65;5.78;;;12.50;75.40;;;;;;5094517;28;20034;-63
2023/10/24 06:12:04;;;;;;;7.82;5.53;;;12.60;75.60;;;;;;5091760;28;20032;-63
2023/10/24 06:14:32;;;;;;;8.77;4.75;;;12.60;75.60;;;;;;5069267;28;20670;-62
2023/10/24 06:16:58;;;;;;;11.15;4.80;;;12.60;75.50;;;;;;5089909;28;20024;-64
2023/10/24 06:19:24;;;;;;;9.88;4.80;;;12.60;75.50;;;;;;5098454;28;20497;-64
2023/10/24 06:21:49;;;;;;;7.20;4.55;;;12.60;75.50;;;;;;5090818;28;20028;-65
2023/10/24 06:24:15;;;;;;;6.97;4.78;;;12.60;75.60;;;;;;5089751;28;20054;-64
2023/10/24 06:26:40;;;;;;;9.15;5.30;;;12.60;75.60;;;;;;5092560;28;20035;-63
2023/10/24 06:29:06;;;;;;;7.10;4.97;;;12.60;75.60;;;;;;5089156;28;20027;-65
2023/10/24 06:31:32;;;;;;;11.75;4.65;;;12.60;75.60;;;;;;5092567;28;20486;-64
2023/10/24 06:33:59;;;;;;;9.50;4.72;;;12.60;75.60;;;;;;5090783;28;20443;-63
2023/10/24 06:36:25;;;;;;;9.52;4.43;;;12.60;75.60;;;;;;5090170;28;20119;-63
2023/10/24 06:38:51;;;;;;;15.18;4.25;;;12.60;75.40;;;;;;5087073;28;21292;-64
2023/10/24 06:41:17;;;;;;;11.85;4.05;;;12.60;75.30;;;;;;5091400;28;20158;-64
2023/10/24 06:43:43;;;;;;;11.63;4.10;;;12.60;75.30;;;;;;5090314;28;20043;-63
2023/10/24 06:46:10;;;;;;;10.50;4.00;;;12.60;75.30;;;;;;5003544;28;20975;-63
2023/10/24 06:48:36;;;;;;;17.10;4.93;;;12.70;75.40;;;;;;5087458;28;20028;-63
2023/10/24 06:51:02;;;;;;;18.40;4.30;;;12.70;75.40;;;;;;5085249;28;20822;-64
2023/10/24 06:53:28;;;;;;;19.83;4.40;;;12.70;75.40;;;;;;5093525;28;20032;-64
2023/10/24 06:56:01;;;;;;;19.55;4.72;;;12.70;75.40;;;;;;5089175;28;20638;-64
2023/10/24 06:58:27;;;;;;;15.63;4.22;;;12.70;75.40;;;;;;5084682;28;20042;-64
2023/10/24 07:00:54;;;;;;;17.38;4.68;;;12.70;75.40;;;;;;5085207;28;20031;-64
2023/10/24 07:03:20;;;;;;;13.20;4.85;;;12.70;75.40;;;;;;5093297;28;20150;-64
2023/10/24 07:05:51;;;;;;;11.82;4.95;;;12.70;75.20;;;;;;5089049;28;20111;-64
2023/10/24 07:08:17;;;;;;;8.40;4.75;;;12.80;75.70;;;;;;5089231;28;20627;-65
2023/10/24 07:10:43;;;;;;;10.20;4.72;;;12.70;75.60;;;;;;5084434;28;20675;-64
2023/10/24 07:13:11;;;;;;;7.78;5.38;;;12.80;75.70;;;;;;5090329;28;20031;-64
2023/10/24 07:15:36;;;;;;;13.60;6.25;;;12.80;75.80;;;;;;5087080;28;20030;-63
2023/10/24 07:18:02;;;;;;;10.52;6.95;;;12.80;75.80;;;;;;5089103;28;20023;-63
2023/10/24 07:20:28;;;;;;;10.55;7.22;;;12.90;75.80;;;;;;5082348;28;20378;-63
2023/10/24 07:22:53;;;;;;;12.60;7.00;;;12.90;75.80;;;;;;5092535;28;20024;-64
2023/10/24 07:25:19;;;;;;;11.30;6.78;;;12.90;75.80;;;;;;5088980;28;20058;-63
2023/10/24 07:27:45;;;;;;;9.00;6.63;;;13.00;76.50;;;;;;5092168;28;20030;-64
2023/10/24 07:30:11;;;;;;;9.88;6.55;;;13.00;75.70;;;;;;5086842;28;20518;-64
2023/10/24 07:32:36;;;;;;;15.45;8.15;;;13.00;75.60;;;;;;5087406;28;20036;-65
2023/10/24 07:35:03;;;;;;;10.77;7.10;;;13.10;75.60;;;;;;5086793;28;20038;-63
2023/10/24 07:37:29;;;;;;;11.90;8.02;;;13.10;75.50;;;;;;5091611;28;20087;-64
2023/10/24 07:39:54;;;;;;;11.10;8.95;;;13.10;75.60;;;;;;5073833;28;20469;-64
2023/10/24 07:42:20;;;;;;;13.30;9.52;;;13.10;75.50;;;;;;5089737;28;20749;-63
2023/10/24 07:44:46;;;;;;;14.05;9.30;;;13.10;75.50;;;;;;5088783;28;20073;-64
2023/10/24 07:47:12;;;;;;;14.65;9.48;;;13.20;75.50;;;;;;5082898;28;20063;-65
2023/10/24 07:49:37;;;;;;;15.18;8.63;;;13.20;75.50;;;;;;5089040;28;20063;-63
2023/10/24 07:52:03;;;;;;;14.88;8.52;;;13.20;75.50;;;;;;5086489;28;20454;-64
2023/10/24 07:54:30;;;;;;;14.43;8.32;;;13.30;75.60;;;;;;5084758;28;20436;-63
2023/10/24 07:56:56;;;;;;;19.92;8.25;;;13.30;75.60;;;;;;5085614;28;20111;-64
2023/10/24 07:59:21;;;;;;;10.13;7.70;;;13.30;75.60;;;;;;5090867;28;20114;-64
2023/10/24 08:01:47;;;;;;;11.65;7.90;;;13.40;75.70;;;;;;5083981;28;20028;-65
2023/10/24 08:04:13;;;;;;;18.05;8.48;;;13.40;75.70;;;;;;5086463;28;20392;-65
2023/10/24 08:06:38;;;;;;;17.67;9.77;;;13.50;75.70;;;;;;5094127;28;20535;-64
2023/10/24 08:09:04;;;;;;;12.95;8.70;;;13.50;75.30;;;;;;5091427;28;20508;-64
2023/10/24 08:11:30;;;;;;;15.25;8.10;;;13.50;75.10;;;;;;5087238;28;20099;-66
2023/10/24 08:13:55;;;;;;;9.10;6.07;;;13.50;75.00;;;;;;5085802;28;20028;-64
2023/10/24 08:16:21;;;;;;;11.25;6.57;;;13.60;75.20;;;;;;5089160;28;20139;-64
2023/10/24 08:18:47;;;;;;;12.35;6.80;;;13.50;75.30;;;;;;5085812;28;20415;-64
2023/10/24 08:21:16;;;;;;;14.27;6.80;;;13.60;75.40;;;;;;5092571;28;20070;-64
2023/10/24 08:23:41;;;;;;;16.52;7.15;;;13.60;75.40;;;;;;5079715;28;20130;-63
2023/10/24 08:26:07;;;;;;;11.20;6.60;;;13.60;75.50;;;;;;5088557;28;20473;-64
2023/10/24 08:28:33;;;;;;;9.50;6.03;;;13.70;75.40;;;;;;5090885;28;20024;-64
2023/10/24 08:30:58;;;;;;;11.52;6.65;;;13.70;75.40;;;;;;5091866;28;20039;-64
2023/10/24 08:33:24;;;;;;;11.55;6.75;;;13.80;75.50;;;;;;5085496;28;20027;-64
2023/10/24 08:35:50;;;;;;;9.18;6.03;;;13.80;75.50;;;;;;5085754;28;20028;-65
2023/10/24 08:38:16;;;;;;;10.98;6.15;;;13.80;75.50;;;;;;5081657;28;20031;-64
2023/10/24 08:40:42;;;;;;;13.27;6.55;;;13.90;75.50;;;;;;5086521;28;20031;-64
2023/10/24 08:43:11;;;;;;;16.20;6.18;;;14.00;75.50;;;;;;5086542;28;20792;-64
2023/10/24 08:45:37;;;;;;;20.65;6.20;;;14.00;75.40;;;;;;5091546;28;20028;-64
2023/10/24 08:48:05;;;;;;;11.57;5.75;;;14.00;75.20;;;;;;5085545;28;20036;-63
2023/10/24 08:50:32;;;;;;;12.90;5.28;;;14.10;75.10;;;;;;5063105;28;20408;-64
2023/10/24 08:52:58;;;;;;;20.85;5.43;;;14.10;74.90;;;;;;5088366;28;20059;-64
2023/10/24 08:55:24;;;;;;;13.68;4.90;;;14.10;75.10;;;;;;5088875;28;20054;-63
2023/10/24 08:57:52;;;;;;;19.45;6.10;;;14.10;75.20;;;;;;5090448;28;20020;-65
2023/10/24 09:00:18;;;;;;;22.75;5.80;;;14.20;75.30;;;;;;5087609;28;20031;-64
2023/10/24 09:02:45;;;;;;;14.68;5.65;;;14.20;75.30;;;;;;5093287;28;20719;-65
2023/10/24 09:05:13;;;;;;;9.05;4.80;;;14.20;75.30;;;;;;5087759;28;20837;-64
2023/10/24 09:07:39;;;;;;;15.00;5.63;;;14.30;75.20;;;;;;5086292;28;20065;-65
2023/10/24 09:10:05;;;;;;;12.23;5.55;;;14.30;75.10;;;;;;5094280;28;20036;-64
2023/10/24 09:12:32;;;;;;;14.73;5.35;;;14.30;75.00;;;;;;5093991;28;20039;-63
2023/10/24 09:14:59;;;;;;;9.68;5.13;;;14.30;75.00;;;;;;5091888;28;20043;-65
2023/10/24 09:17:25;;;;;;;14.07;5.47;;;14.40;75.20;;;;;;5090426;28;20482;-63
2023/10/24 09:19:55;;;;;;;15.65;5.70;;;14.40;75.00;;;;;;5078121;28;20036;-65
2023/10/24 09:22:22;;;;;;;11.10;5.05;;;14.40;75.00;;;;;;5096179;28;20026;-64
2023/10/24 09:24:49;;;;;;;9.15;5.03;;;14.50;75.10;;;;;;5089741;28;20062;-66
2023/10/24 09:27:21;;;;;;;11.55;5.32;;;14.50;75.00;;;;;;5093981;28;20073;-64
2023/10/24 09:29:49;;;;;;;17.13;5.60;;;14.50;74.90;;;;;;5073395;28;20032;-63
2023/10/24 09:32:16;;;;;;;10.65;5.72;;;14.50;75.00;;;;;;5082279;28;20589;-63
2023/10/24 09:34:47;;;;;;;12.13;5.60;;;14.60;75.00;;;;;;5091748;28;20032;-64
2023/10/24 09:37:16;;;;;;;10.43;5.35;;;14.60;75.10;;;;;;5088278;28;20031;-64
2023/10/24 09:39:52;;;;;;;10.05;5.60;;;14.60;74.90;;;;;;5092581;28;20043;-64
2023/10/24 09:42:26;;;;;;;10.05;5.43;;;14.70;75.10;;;;;;5084149;28;20391;-64
2023/10/24 09:45:04;;;;;;;13.02;5.60;;;14.70;75.00;;;;;;5087569;28;20016;-65
2023/10/24 09:47:32;;;;;;;13.10;5.70;;;14.70;75.30;;;;;;5092362;28;20039;-65
2023/10/24 09:49:59;;;;;;;13.75;5.50;;;14.70;75.10;;;;;;5007967;28;20068;-64
2023/10/24 09:52:27;;;;;;;14.02;6.43;;;14.70;75.10;;;;;;5088321;28;20027;-65
2023/10/24 09:54:57;;;;;;;12.07;5.78;;;14.70;75.20;;;;;;5084498;28;20024;-64
2023/10/24 09:57:23;;;;;;;13.32;6.20;;;14.70;75.10;;;;;;5088267;28;20490;-64
2023/10/24 09:59:55;;;;;;;10.88;5.95;;;14.80;75.10;;;;;;5071884;28;20040;-64
2023/10/24 10:02:23;;;;;;;14.05;6.22;;;14.80;75.30;;;;;;5086203;28;20020;-63
2023/10/24 10:04:50;;;;;;;24.92;6.60;;;14.80;75.30;;;;;;5093927;28;20469;-64
2023/10/24 10:07:20;;;;;;;10.63;5.88;;;14.80;75.20;;;;;;5085509;28;20055;-66
2023/10/24 10:09:48;;;;;;;17.65;5.47;;;14.80;75.10;;;;;;5087615;28;20450;-65
2023/10/24 10:12:17;;;;;;;10.15;6.03;;;14.80;75.00;;;;;;5091977;28;20028;-63
2023/10/24 10:14:56;;;;;;;8.80;5.45;;;14.80;75.10;;;;;;5087562;28;20228;-64
2023/10/24 10:17:32;;;;;;;10.32;6.13;;;14.80;75.20;;;;;;5097358;28;20122;-64
2023/10/24 10:20:02;;;;;;;9.95;5.97;;;14.80;75.20;;;;;;5091596;28;20040;-65
2023/10/24 10:22:54;;;;;;;31.50;6.03;;;14.80;75.00;;;;;;5088934;28;20024;-64
2023/10/24 10:25:45;;;;;;;12.80;6.25;;;14.70;75.50;;;;;;5090296;28;21229;-66
2023/10/24 10:28:15;;;;;;;11.70;6.10;;;14.70;75.20;;;;;;5067783;28;20092;-65
2023/10/24 10:31:14;;;;;;;15.35;6.65;;;14.70;75.40;;;;;;5088626;28;20069;-65
2023/10/24 10:33:41;;;;;;;11.57;6.22;;;14.70;76.30;;;;;;5091407;28;20039;-65
2023/10/24 10:36:11;;;;;;;10.65;6.20;;;14.70;75.70;;;;;;5087243;28;20107;-64
2023/10/24 10:38:46;;;;;;;10.27;6.18;;;14.70;76.10;;;;;;5084501;28;20497;-65
2023/10/24 10:41:24;;;;;;;9.02;6.00;;;14.70;76.40;;;;;;5070120;28;20360;-66
2023/10/24 10:43:53;;;;;;;8.63;6.22;;;14.80;76.80;;;;;;5089816;28;20039;-66
2023/10/24 10:46:26;;;;;;;10.98;6.30;;;14.80;76.40;;;;;;5012907;28;20013;-64
2023/10/24 10:48:52;;;;;;;9.45;6.18;;;14.80;76.50;;;;;;5091128;28;20040;-65
2023/10/24 10:51:25;;;;;;;11.38;6.63;;;14.80;76.50;;;;;;5095628;27;20066;-64
2023/10/24 10:54:19;;;;;;;10.45;6.05;;;14.90;76.60;;;;;;5088857;28;20428;-65
2023/10/24 10:56:47;;;;;;;12.57;6.13;;;14.90;77.10;;;;;;5084247;28;20024;-65
2023/10/24 10:59:43;;;;;;;13.95;6.78;;;15.00;76.50;;;;;;5088604;28;20401;-64
2023/10/24 11:02:34;;;;;;;9.38;5.90;;;15.00;77.10;;;;;;5086670;28;20031;-64
2023/10/24 11:04:59;;;;;;;10.20;6.07;;;15.00;76.80;;;;;;5089868;28;20032;-65
2023/10/24 11:07:50;;;;;;;14.27;7.07;;;15.10;76.70;;;;;;5086307;28;20073;-65
2023/10/24 11:10:17;;;;;;;12.85;7.00;;;15.10;77.30;;;;;;5088144;28;20020;-65
2023/10/24 11:12:49;;;;;;;13.95;7.85;;;15.10;76.70;;;;;;5090129;28;20023;-64
2023/10/24 11:15:21;;;;;;;15.30;9.15;;;15.20;76.90;;;;;;5088170;28;20081;-65
2023/10/24 11:17:47;;;;;;;19.40;9.73;;;15.20;76.70;;;;;;5084682;28;20692;-65
2023/10/24 11:20:13;;;;;;;17.63;9.40;;;15.20;76.60;;;;;;5093838;28;20043;-64
2023/10/24 11:22:39;;;;;;;16.05;8.85;;;15.30;76.40;;;;;;5068122;28;20432;-65
2023/10/24 11:25:11;;;;;;;15.63;8.50;;;15.30;76.40;;;;;;5086730;28;20051;-65
2023/10/24 11:27:38;;;;;;;16.02;9.02;;;15.20;76.60;;;;;;5080406;28;20028;-64
2023/10/24 11:30:06;;;;;;;25.77;8.80;;;15.30;76.60;;;;;;5088012;28;20157;-65
2023/10/24 11:32:31;;;;;;;15.15;8.18;;;15.30;76.70;;;;;;5089723;28;20876;-65
2023/10/24 11:34:57;;;;;;;11.32;7.53;;;15.30;76.90;;;;;;5087112;28;20177;-64
2023/10/24 11:37:23;;;;;;;11.35;6.63;;;15.30;77.00;;;;;;5091233;28;20024;-65
2023/10/24 11:39:49;;;;;;;10.82;7.25;;;15.40;77.00;;;;;;5095223;28;20036;-65
2023/10/24 11:42:15;;;;;;;13.88;7.93;;;15.40;77.00;;;;;;5083600;28;20036;-65
2023/10/24 11:44:41;;;;;;;13.50;7.60;;;15.40;77.10;;;;;;5081969;28;20016;-66
2023/10/24 11:47:13;;;;;;;21.50;9.50;;;15.50;77.30;;;;;;5018677;28;20034;-65
2023/10/24 11:49:39;;;;;;;17.27;8.40;;;15.50;77.10;;;;;;5084542;28;20032;-64
2023/10/24 11:52:05;;;;;;;16.30;8.77;;;15.60;77.00;;;;;;5087355;28;20028;-63
2023/10/24 11:54:31;;;;;;;14.18;7.22;;;15.60;77.10;;;;;;5084824;28;20478;-66
2023/10/24 11:56:59;;;;;;;13.68;6.47;;;15.60;77.10;;;;;;5085590;28;20032;-63
2023/10/24 11:59:35;;;;;;;8.85;5.95;;;15.70;77.10;;;;;;5092083;28;20375;-64
2023/10/24 12:02:02;;;;;;;11.68;6.00;;;15.70;77.30;;;;;;5084113;28;20063;-66
2023/10/24 12:04:30;;;;;;;8.55;5.55;;;15.80;77.00;;;;;;5083625;28;20016;-65
2023/10/24 12:07:08;;;;;;;10.98;6.38;;;15.80;77.20;;;;;;5087460;28;20071;-64
2023/10/24 12:09:35;;;;;;;11.90;7.05;;;15.80;77.50;;;;;;5093098;28;20020;-64
2023/10/24 12:12:02;;;;;;;13.98;7.50;;;15.80;77.00;;;;;;5085904;28;20350;-63
2023/10/24 12:14:28;;;;;;;15.38;7.25;;;15.90;77.10;;;;;;5094631;28;20032;-66
2023/10/24 12:16:53;;;;;;;12.10;6.97;;;15.90;77.00;;;;;;5095268;28;20482;-66
2023/10/24 12:19:20;;;;;;;9.88;6.65;;;15.90;76.90;;;;;;5088774;28;20058;-64
2023/10/24 12:21:45;;;;;;;13.48;6.78;;;15.90;76.80;;;;;;5089127;28;20133;-66
2023/10/24 12:24:12;;;;;;;11.93;6.85;;;15.90;76.70;;;;;;5092927;28;20031;-66
2023/10/24 12:26:38;;;;;;;12.23;6.97;;;15.90;76.60;;;;;;5089521;28;20071;-63
2023/10/24 12:29:09;;;;;;;13.95;7.97;;;15.90;76.70;;;;;;5078955;28;20541;-64
2023/10/24 12:31:35;;;;;;;13.02;7.55;;;16.00;76.80;;;;;;5094091;28;20069;-66
2023/10/24 12:34:01;;;;;;;20.95;9.82;;;16.00;76.80;;;;;;5093652;28;20028;-65
2023/10/24 12:36:27;;;;;;;14.55;8.85;;;16.00;76.80;;;;;;5091527;28;20093;-65
2023/10/24 12:38:53;;;;;;;17.58;8.48;;;16.00;76.80;;;;;;5089612;28;20040;-65
2023/10/24 12:41:18;;;;;;;14.15;8.25;;;16.00;76.80;;;;;;5094489;28;20065;-65
2023/10/24 12:43:44;;;;;;;17.10;7.88;;;16.00;76.80;;;;;;5090473;28;20026;-64